DateCommit messageAuthorFiles+-
2021-05-23 13:47Add dwmb-updatesOscar Benedito1+7-0
2021-05-16 17:22Document just using a subset of filesOscar Benedito1+20-0
2021-05-16 12:23Various updatesOscar Benedito3+4-6
2021-05-12 19:34Add font configOscar Benedito1+8-0
2021-05-12 19:34Add git shortcut for shallow cloneOscar Benedito1+1-0
2021-05-12 19:33Update vimplugOscar Benedito1+20-7
2021-05-12 19:30Change config for ArchOscar Benedito11+104-55
2021-05-12 19:22Use xinitrc instead of autostartOscar Benedito3+19-27
2021-05-10 14:34Added favicon to vimwiki html pagesOscar Benedito1+1-0
2021-05-04 18:51Multiple script editsOscar Benedito7+61-35
2021-05-04 18:42vimrc improvementsOscar Benedito1+7-2
2021-05-04 18:41Fix vim pluggin shortcuts not workingOscar Benedito1+5-3
2021-05-04 18:39Remove toggle-kbmapOscar Benedito1+0-9
2021-05-04 18:37Remove dunst shortcutsOscar Benedito1+6-5
2021-04-30 15:42Add vimwiki to HTML script and templateOscar Benedito3+279-1
2021-03-24 11:16Add scriptsOscar Benedito2+71-0
2021-03-24 10:50CleanupOscar Benedito6+18-47
2021-03-24 10:48zsh smarter historyOscar Benedito1+3-2
2021-03-24 10:46Change dunst timeoutsOscar Benedito1+3-3
2021-03-24 10:42env sh -> /bin/sh on shebangsOscar Benedito20+21-20
2021-03-21 21:41Change vim shortcutsOscar Benedito5+12-43
2021-03-21 21:39Add latexmk default viewerOscar Benedito1+1-0
2021-02-06 01:01Add torrent status bar blockOscar Benedito1+11-0
2021-02-06 01:01Change status bar iconsOscar Benedito5+21-15
2021-02-06 01:00Fix disk status bar infoOscar Benedito1+2-2
2020-12-13 16:22Update license linkOscar Benedito1+3-3
2020-12-13 16:10Update plug.vimOscar Benedito1+155-54
2020-12-13 16:09Add pass configurationOscar Benedito3+34-0
2020-11-24 17:49Update username for git-emailOscar Benedito1+1-1
2020-11-24 17:49Add git branch to prompt if not on default branchOscar Benedito2+12-1
2020-09-24 17:54Use tabs instead of spaces when programming in COscar Benedito1+1-0
2020-09-24 17:53Add more git shortcutsOscar Benedito1+3-0
2020-09-24 17:53Website from Hugo to gensite.pyOscar Benedito1+2-3
2020-09-05 16:19Minor changesOscar Benedito5+25-329
2020-08-12 22:10Drop script to create files and dirs shortcutsOscar Benedito6+14-41
2020-07-31 11:29Edit README detailsOscar Benedito1+3-3
2020-07-12 20:28Add git send-email configuration and add aliasOscar Benedito2+7-0
2020-07-12 20:13Add PAGER environment variableOscar Benedito1+1-0
2020-07-12 20:12Add zsh key bindings for fzfOscar Benedito2+126-1
2020-06-29 08:24Edit defaults and shortcuts on vimrcOscar Benedito1+17-10
2020-06-29 08:15Add shebang to .profileOscar Benedito1+2-0
2020-06-28 21:20Add test-dunst scriptOscar Benedito1+14-0
2020-06-28 21:19Drop leading ',' from custom scriptsOscar Benedito5+0-0
2020-06-28 19:12Add more alias for "cd ../../.."Oscar Benedito1+3-0
2020-06-28 19:11Add spaces to initial status bar textOscar Benedito1+1-1
2020-06-28 19:09Add internet script for dwmblocksOscar Benedito1+11-0
2020-06-24 09:51Run xrdb after configuring monitorsOscar Benedito1+1-0
2020-06-24 09:49Redefine Xresources variablesOscar Benedito1+51-50
2020-06-23 18:00Update directories shortcutsOscar Benedito1+3-1
2020-06-23 17:59Drop atom command from website scriptOscar Benedito1+3-11
2020-06-23 17:59Move .zshenv into .profileOscar Benedito2+29-31
2020-06-23 17:50Organize Xresources and add slockOscar Benedito1+21-17
2020-06-22 13:15Add st configOscar Benedito2+137-0
2020-06-22 10:19Add .config/Xresources fileOscar Benedito4+45-3
2020-06-21 23:47Add logout scriptOscar Benedito3+16-0
2020-06-21 18:03vim-commentary: undo customization of C commentsOscar Benedito1+0-4
2020-06-21 18:00vim: switched : and ; mappingsOscar Benedito1+23-16
2020-06-21 17:57Changed git aliasesOscar Benedito1+3-1
2020-06-21 17:42Changed i3, i3blocks and i3lock for dwm, dwmblocks and slockOscar Benedito17+302-658
2020-06-21 17:53~/.zshenv to ~/.profileOscar Benedito3+3-3
2020-06-17 16:42Git name changed from username to real nameOscar Benedito1+1-1
2020-06-15 16:24Added more git aliasesoscarbenedito1+3-1
2020-06-15 14:51i3: added shortcut to move windows without switching spacesoscarbenedito1+12-0
2020-06-15 08:24Added replicating method to READMEoscarbenedito1+41-21
2020-06-14 21:51Added instrucions and aliases to work with new systemoscarbenedito2+71-3
2020-06-14 20:55Git aliases moved to git configoscarbenedito2+14-11
2020-06-14 20:53cv alias now opens fugitiveoscarbenedito1+1-1
2020-06-14 18:39No longer using chezmoioscarbenedito51+109-1329
2020-06-14 17:54Removed all chezmoi templatesoscarbenedito6+103-114
2020-06-14 14:15Swap zshenv original and symlink filesoscarbenedito3+1-1
2020-06-14 13:22Deleted config for college computersoscarbenedito1+0-17
2020-06-14 11:44Gnome screenshot -> scrotoscarbenedito1+2-1
2020-06-14 11:43Deleted leading ',' in some scriptsoscarbenedito6+8-8
2020-06-14 11:41Deleted Joplin shortcutoscarbenedito1+0-1
2020-06-14 11:39Squashed sed calls in appimage scriptoscarbenedito1+1-2
2020-06-14 11:33Backup script doesn't depend on KeePassXC filenameoscarbenedito1+3-1
2020-06-14 11:31Minor thingsoscarbenedito3+7-4
2020-06-14 11:18Updated plug.vimoscarbenedito1+125-35
2020-05-28 21:59Fixed Signal's issue with sandboxoscarbenedito1+1-1
2020-05-28 21:56vimrc and vimrc updating script changesoscarbenedito2+28-14
2020-05-28 21:54Alacritty as default terminaloscarbenedito4+651-2
2020-05-28 21:52Fixed nvim colors in tmuxoscarbenedito3+10-10
2020-05-27 08:49Added apt-get updates to status bar (i3)oscarbenedito2+9-1
2020-05-14 08:36Style fixesoscarbenedito2+21-13
2020-05-09 11:01Update KeePassXC versionoscarbenedito1+1-1
2020-05-09 10:58Change netrw behaviour for better :Ex experienceoscarbenedito1+10-0
2020-05-09 10:56Revert show indentation spacesoscarbenedito1+3-12
2020-05-09 07:42Nvim now shows preceding dotsoscarbenedito1+18-7
2020-05-09 07:39Changes aliases and gaps in i3oscarbenedito2+3-4
2020-05-03 20:54Updated vim onedark colorschemeoscarbenedito2+7-7
2020-05-03 20:53alias c edit -> c edit --applyoscarbenedito1+1-1
2020-05-03 20:53Vimwiki addedoscarbenedito3+13-3
2020-05-03 20:50xautolock can now be disabled with cornersoscarbenedito1+1-1
2020-04-27 21:39Autolock after 5 mins of inactivity i3oscarbenedito1+3-0
2020-04-27 21:38Aliases and shortcutsoscarbenedito2+3-1
2020-04-27 21:37Fixed i3-lock when no env variablesoscarbenedito1+6-2
2020-04-26 18:52New shortcutsoscarbenedito2+6-0
2020-04-26 18:52New lock script to make lock screen match wallpaperoscarbenedito2+13-1
2020-04-26 18:47Added .zshenv symlinkoscarbenedito2+2-1
2020-04-25 19:11i3 bar colors customized a bitoscarbenedito3+15-3
2020-04-25 19:10i3-dmenu-desktop -> j4-dmenu-desktoposcarbenedito1+1-1
2020-04-25 16:45Mounting drives automatedoscarbenedito2+30-8
2020-04-25 15:01Battery status isn't colored (except for really low)oscarbenedito1+3-13
2020-04-25 12:30Added brightness to i3 status baroscarbenedito3+58-9
2020-04-24 23:13Added scripts and vim automated shortcutsoscarbenedito4+28-0
2020-04-24 23:12i3 config revised and organizedoscarbenedito1+127-96
2020-04-24 20:25New i3 config (with i3blocks and dunst)oscarbenedito7+686-327
2020-04-24 20:22New shortcuts that get created automaticallyoscarbenedito5+48-0
2020-04-24 20:21zsh files moved to .config/zshoscarbenedito5+116-112
2020-04-24 20:19Deleted commented lines on .vimrcoscarbenedito1+0-11
2020-04-21 14:23Reorganized vimrc and added some linesoscarbenedito1+87-42
2020-04-21 14:22Added local bin folder and deleted changing terminal cursorsoscarbenedito2+3-26
2020-04-21 14:20Scripts renamed with preceding comma and added newoscarbenedito4+17-0
2020-03-31 10:30Added some vim templatesoscarbenedito5+55-1
2020-03-30 21:57Changed git backupsoscarbenedito1+12-4
2020-03-30 17:08Improved backups and added vim plugginsoscarbenedito4+41-29
2020-03-25 23:36Nvim language package and GPG folder to homeoscarbenedito2+1-1
2020-03-25 17:15Installation script and some funcitonalities addedoscarbenedito4+48-9
2020-03-24 23:51More home cleaningoscarbenedito4+17-15
2020-03-24 22:32Clean up of dotfiles in the home directoryoscarbenedito17+3709-2826
2020-03-24 10:25Adds a couple lines to .vimrcoscarbenedito2+5-1
2020-03-22 11:26Email updated and GOPATH addedoscarbenedito2+4-1
2020-03-01 15:04Merge branch 'master' of gitlab.com:oscarbenedito/dotfilesoscarbenedito4+444-2
2020-03-01 15:04New domainoscarbenedito3+3-18
2020-02-28 09:45Fixesoscarbenedito1+5-1
2020-02-24 18:46i3 configuration for Manjaro addedoscarbenedito3+439-1
2020-02-16 19:50Changed mkdir aliasoscarbenedito1+1-1
2020-02-16 16:08Bugoscarbenedito1+1-1
2020-02-14 10:33Added configuration for kitty terminaloscarbenedito2+1186-0
2020-02-14 09:23Fix for Arch zsh pluginsoscarbenedito2+44-40
2020-01-26 23:35Added aliasesoscarbenedito2+32-6
2020-01-25 22:06Vim and zsh stuffoscarbenedito2+20-9
2020-01-24 01:01Fixed bugs and added aliasesoscarbenedito6+46-15
2020-01-22 22:00Added .zshrcoscarbenedito1+33-0
2020-01-22 22:00Deleted Markion dependencyoscarbenedito18+308-1304
2020-01-22 15:32Updatesoscarbenedito1+1-1
2020-01-22 15:20Swapping Esc and Capsoscarbenedito1+11-0
2020-01-22 15:11Fixes hostnames for FMEoscarbenedito1+2-2
2020-01-22 15:02Updatesoscarbenedito7+2616-166
2020-01-21 17:12Added vim config for splitsoscarbenedito1+18-0
2020-01-21 11:35Updated chezmoi's configuration and added ssh configoscarbenedito5+39-21
2019-12-15 22:14Updated markionoscarbenedito3+9-2
2019-12-02 23:16Fixes vim statusline bugoscarbenedito1+1-1
2019-12-02 21:16Fixes bugs with vim themeoscarbenedito1+29-0
2019-12-02 17:30Changed vim themeoscarbenedito3+659-2
2019-11-28 18:14Added vim themes and status baroscarbenedito2+352-0
2019-11-26 23:08Changes to vimrc and backups fixedoscarbenedito2+13-3
2019-11-25 17:54Added configuration for fme-desktop computersoscarbenedito1+9-0
2019-11-25 16:57Bug fixesoscarbenedito3+19-7
2019-11-22 20:40Fixed backup alias and added i3 configuration fileoscarbenedito4+202-14
2019-11-19 21:57README updatedoscarbenedito1+1-1
2019-11-17 23:19Performance improvements on script calling to Markionoscarbenedito4+12-10
2019-11-17 18:13Added alias to run Markion before chezmoioscarbenedito1+7-0
2019-11-16 23:06Added licensesoscarbenedito10+823-0
2019-11-16 22:57Tabs to spacesoscarbenedito2+22-20
2019-11-16 20:56Changed files to use literate programmingoscarbenedito11+163-78
2019-11-16 19:31Initial commitoscarbenedito10+216-0